sensor_id;sensor_type;location;lat;lon;timestamp;P1;durP1;ratioP1;P2;durP2;ratioP2
77518;SDS011;66629;47.346;19.038;2023-05-24T00:00:02;7.70;;;4.40;;
77518;SDS011;66629;47.346;19.038;2023-05-24T00:02:30;8.20;;;4.43;;
77518;SDS011;66629;47.346;19.038;2023-05-24T00:04:55;7.80;;;4.90;;
77518;SDS011;66629;47.346;19.038;2023-05-24T00:07:24;6.28;;;4.55;;
77518;SDS011;66629;47.346;19.038;2023-05-24T00:09:50;5.07;;;3.97;;
77518;SDS011;66629;47.346;19.038;2023-05-24T00:12:15;6.13;;;4.80;;
77518;SDS011;66629;47.346;19.038;2023-05-24T00:14:41;6.18;;;4.32;;
77518;SDS011;66629;47.346;19.038;2023-05-24T00:17:06;5.72;;;4.47;;
77518;SDS011;66629;47.346;19.038;2023-05-24T00:19:32;7.32;;;4.78;;
77518;SDS011;66629;47.346;19.038;2023-05-24T00:21:58;8.13;;;4.80;;
77518;SDS011;66629;47.346;19.038;2023-05-24T00:24:23;11.32;;;4.82;;
77518;SDS011;66629;47.346;19.038;2023-05-24T00:26:48;6.57;;;4.57;;
77518;SDS011;66629;47.346;19.038;2023-05-24T00:29:14;7.45;;;4.75;;
77518;SDS011;66629;47.346;19.038;2023-05-24T00:31:39;6.10;;;4.53;;
77518;SDS011;66629;47.346;19.038;2023-05-24T00:34:05;6.20;;;4.53;;
77518;SDS011;66629;47.346;19.038;2023-05-24T00:36:31;6.05;;;4.30;;
77518;SDS011;66629;47.346;19.038;2023-05-24T00:38:57;5.30;;;4.07;;
77518;SDS011;66629;47.346;19.038;2023-05-24T00:41:22;7.95;;;4.72;;
77518;SDS011;66629;47.346;19.038;2023-05-24T00:43:48;6.90;;;5.00;;
77518;SDS011;66629;47.346;19.038;2023-05-24T00:46:20;8.40;;;4.90;;
77518;SDS011;66629;47.346;19.038;2023-05-24T00:48:53;6.82;;;4.72;;
77518;SDS011;66629;47.346;19.038;2023-05-24T00:51:19;6.88;;;4.93;;
77518;SDS011;66629;47.346;19.038;2023-05-24T00:53:45;6.90;;;4.80;;
77518;SDS011;66629;47.346;19.038;2023-05-24T00:56:12;5.95;;;4.57;;
77518;SDS011;66629;47.346;19.038;2023-05-24T00:58:38;6.75;;;4.80;;
77518;SDS011;66629;47.346;19.038;2023-05-24T01:01:04;9.57;;;4.93;;
77518;SDS011;66629;47.346;19.038;2023-05-24T01:03:30;7.57;;;5.25;;
77518;SDS011;66629;47.346;19.038;2023-05-24T01:06:00;6.03;;;5.00;;
77518;SDS011;66629;47.346;19.038;2023-05-24T01:08:34;7.22;;;5.05;;
77518;SDS011;66629;47.346;19.038;2023-05-24T01:14:00;6.68;;;4.90;;
77518;SDS011;66629;47.346;19.038;2023-05-24T01:16:49;8.50;;;5.18;;
77518;SDS011;66629;47.346;19.038;2023-05-24T01:24:43;7.32;;;5.43;;
77518;SDS011;66629;47.346;19.038;2023-05-24T01:27:21;7.32;;;5.32;;
77518;SDS011;66629;47.346;19.038;2023-05-24T01:29:48;7.72;;;5.80;;
77518;SDS011;66629;47.346;19.038;2023-05-24T01:32:18;6.63;;;5.40;;
77518;SDS011;66629;47.346;19.038;2023-05-24T01:34:43;8.40;;;5.30;;
77518;SDS011;66629;47.346;19.038;2023-05-24T01:37:09;8.80;;;5.70;;
77518;SDS011;66629;47.346;19.038;2023-05-24T01:39:35;8.27;;;5.30;;
77518;SDS011;66629;47.346;19.038;2023-05-24T01:52:40;7.88;;;5.35;;
77518;SDS011;66629;47.346;19.038;2023-05-24T01:55:08;7.80;;;5.63;;
77518;SDS011;66629;47.346;19.038;2023-05-24T01:57:34;7.70;;;5.80;;
77518;SDS011;66629;47.346;19.038;2023-05-24T02:00:02;9.63;;;6.20;;
77518;SDS011;66629;47.346;19.038;2023-05-24T02:02:29;6.88;;;5.95;;
77518;SDS011;66629;47.346;19.038;2023-05-24T02:04:55;8.07;;;5.85;;
77518;SDS011;66629;47.346;19.038;2023-05-24T02:07:21;7.55;;;5.65;;
77518;SDS011;66629;47.346;19.038;2023-05-24T02:09:46;7.97;;;5.95;;
77518;SDS011;66629;47.346;19.038;2023-05-24T02:12:11;7.93;;;5.75;;
77518;SDS011;66629;47.346;19.038;2023-05-24T02:14:37;9.65;;;5.78;;
77518;SDS011;66629;47.346;19.038;2023-05-24T02:17:03;11.27;;;5.75;;
77518;SDS011;66629;47.346;19.038;2023-05-24T02:19:29;8.95;;;6.18;;
77518;SDS011;66629;47.346;19.038;2023-05-24T02:21:55;7.22;;;5.70;;
77518;SDS011;66629;47.346;19.038;2023-05-24T02:24:20;7.85;;;5.95;;
77518;SDS011;66629;47.346;19.038;2023-05-24T02:26:46;6.57;;;5.22;;
77518;SDS011;66629;47.346;19.038;2023-05-24T02:29:11;8.50;;;5.72;;
77518;SDS011;66629;47.346;19.038;2023-05-24T02:31:36;8.20;;;5.80;;
77518;SDS011;66629;47.346;19.038;2023-05-24T02:34:02;8.45;;;5.93;;
77518;SDS011;66629;47.346;19.038;2023-05-24T02:36:27;7.93;;;6.30;;
77518;SDS011;66629;47.346;19.038;2023-05-24T02:38:53;11.35;;;6.10;;
77518;SDS011;66629;47.346;19.038;2023-05-24T02:41:18;11.00;;;6.55;;
77518;SDS011;66629;47.346;19.038;2023-05-24T02:43:44;8.85;;;6.40;;
77518;SDS011;66629;47.346;19.038;2023-05-24T02:46:10;9.45;;;6.13;;
77518;SDS011;66629;47.346;19.038;2023-05-24T02:48:35;7.43;;;5.82;;
77518;SDS011;66629;47.346;19.038;2023-05-24T02:51:01;8.15;;;6.07;;
77518;SDS011;66629;47.346;19.038;2023-05-24T02:53:30;9.30;;;6.15;;
77518;SDS011;66629;47.346;19.038;2023-05-24T02:55:55;8.55;;;6.53;;
77518;SDS011;66629;47.346;19.038;2023-05-24T02:58:21;9.43;;;6.00;;
77518;SDS011;66629;47.346;19.038;2023-05-24T03:00:47;8.32;;;6.18;;
77518;SDS011;66629;47.346;19.038;2023-05-24T03:03:12;8.30;;;6.13;;
77518;SDS011;66629;47.346;19.038;2023-05-24T03:05:38;7.60;;;6.38;;
77518;SDS011;66629;47.346;19.038;2023-05-24T03:08:03;10.20;;;6.70;;
77518;SDS011;66629;47.346;19.038;2023-05-24T03:10:30;8.85;;;7.00;;
77518;SDS011;66629;47.346;19.038;2023-05-24T03:12:55;9.73;;;7.50;;
77518;SDS011;66629;47.346;19.038;2023-05-24T03:15:21;12.07;;;9.20;;
77518;SDS011;66629;47.346;19.038;2023-05-24T03:17:46;11.82;;;9.10;;
77518;SDS011;66629;47.346;19.038;2023-05-24T03:20:12;15.23;;;9.52;;
77518;SDS011;66629;47.346;19.038;2023-05-24T03:22:37;12.88;;;8.48;;
77518;SDS011;66629;47.346;19.038;2023-05-24T03:25:03;11.95;;;8.57;;
77518;SDS011;66629;47.346;19.038;2023-05-24T03:27:29;10.88;;;8.30;;
77518;SDS011;66629;47.346;19.038;2023-05-24T03:29:54;11.57;;;9.07;;
77518;SDS011;66629;47.346;19.038;2023-05-24T03:32:20;13.02;;;9.02;;
77518;SDS011;66629;47.346;19.038;2023-05-24T03:34:45;11.75;;;8.95;;
77518;SDS011;66629;47.346;19.038;2023-05-24T03:37:11;11.52;;;8.85;;
77518;SDS011;66629;47.346;19.038;2023-05-24T03:39:36;10.77;;;8.18;;
77518;SDS011;66629;47.346;19.038;2023-05-24T03:42:02;12.18;;;8.55;;
77518;SDS011;66629;47.346;19.038;2023-05-24T03:44:27;10.77;;;8.43;;
77518;SDS011;66629;47.346;19.038;2023-05-24T03:46:53;14.50;;;11.95;;
77518;SDS011;66629;47.346;19.038;2023-05-24T03:49:18;18.80;;;11.95;;
77518;SDS011;66629;47.346;19.038;2023-05-24T03:51:43;20.40;;;14.18;;
77518;SDS011;66629;47.346;19.038;2023-05-24T03:54:09;20.95;;;14.48;;
77518;SDS011;66629;47.346;19.038;2023-05-24T03:56:35;23.05;;;14.55;;
77518;SDS011;66629;47.346;19.038;2023-05-24T03:59:01;23.50;;;16.90;;
77518;SDS011;66629;47.346;19.038;2023-05-24T04:01:28;23.70;;;16.08;;
77518;SDS011;66629;47.346;19.038;2023-05-24T04:03:55;22.23;;;15.82;;
77518;SDS011;66629;47.346;19.038;2023-05-24T04:06:21;21.00;;;16.15;;
77518;SDS011;66629;47.346;19.038;2023-05-24T04:08:53;22.33;;;17.20;;
77518;SDS011;66629;47.346;19.038;2023-05-24T04:11:19;23.40;;;17.58;;
77518;SDS011;66629;47.346;19.038;2023-05-24T04:13:46;21.77;;;16.73;;
77518;SDS011;66629;47.346;19.038;2023-05-24T04:16:11;23.15;;;16.17;;
77518;SDS011;66629;47.346;19.038;2023-05-24T04:18:38;22.42;;;15.88;;
77518;SDS011;66629;47.346;19.038;2023-05-24T04:21:03;20.80;;;15.27;;
77518;SDS011;66629;47.346;19.038;2023-05-24T04:23:28;19.77;;;15.05;;
77518;SDS011;66629;47.346;19.038;2023-05-24T04:25:54;23.10;;;14.95;;
77518;SDS011;66629;47.346;19.038;2023-05-24T04:28:19;25.17;;;15.23;;
77518;SDS011;66629;47.346;19.038;2023-05-24T04:30:46;19.25;;;14.90;;
77518;SDS011;66629;47.346;19.038;2023-05-24T04:33:12;19.02;;;14.55;;
77518;SDS011;66629;47.346;19.038;2023-05-24T04:35:38;21.17;;;14.43;;
77518;SDS011;66629;47.346;19.038;2023-05-24T04:38:05;18.42;;;14.55;;
77518;SDS011;66629;47.346;19.038;2023-05-24T04:40:31;18.35;;;13.20;;
77518;SDS011;66629;47.346;19.038;2023-05-24T04:42:57;18.75;;;12.25;;
77518;SDS011;66629;47.346;19.038;2023-05-24T04:45:22;16.30;;;11.00;;
77518;SDS011;66629;47.346;19.038;2023-05-24T04:47:49;14.73;;;11.25;;
77518;SDS011;66629;47.346;19.038;2023-05-24T04:50:14;13.07;;;9.75;;
77518;SDS011;66629;47.346;19.038;2023-05-24T04:52:40;13.82;;;10.73;;
77518;SDS011;66629;47.346;19.038;2023-05-24T04:55:05;14.90;;;10.90;;
77518;SDS011;66629;47.346;19.038;2023-05-24T04:57:31;15.52;;;10.77;;
77518;SDS011;66629;47.346;19.038;2023-05-24T04:59:57;14.05;;;10.63;;
77518;SDS011;66629;47.346;19.038;2023-05-24T05:02:22;12.57;;;9.55;;
77518;SDS011;66629;47.346;19.038;2023-05-24T05:04:50;13.88;;;10.15;;
77518;SDS011;66629;47.346;19.038;2023-05-24T05:07:15;13.50;;;10.15;;
77518;SDS011;66629;47.346;19.038;2023-05-24T05:09:41;12.75;;;10.40;;
77518;SDS011;66629;47.346;19.038;2023-05-24T05:12:07;11.40;;;9.27;;
77518;SDS011;66629;47.346;19.038;2023-05-24T05:14:32;13.90;;;10.20;;
77518;SDS011;66629;47.346;19.038;2023-05-24T05:16:57;12.25;;;9.75;;
77518;SDS011;66629;47.346;19.038;2023-05-24T05:19:23;12.90;;;10.00;;
77518;SDS011;66629;47.346;19.038;2023-05-24T05:21:50;12.02;;;9.85;;
77518;SDS011;66629;47.346;19.038;2023-05-24T05:24:15;13.13;;;9.70;;
77518;SDS011;66629;47.346;19.038;2023-05-24T05:26:42;12.35;;;9.98;;
77518;SDS011;66629;47.346;19.038;2023-05-24T05:29:07;12.18;;;9.80;;
77518;SDS011;66629;47.346;19.038;2023-05-24T05:31:33;14.30;;;9.85;;
77518;SDS011;66629;47.346;19.038;2023-05-24T05:33:58;15.27;;;11.60;;
77518;SDS011;66629;47.346;19.038;2023-05-24T05:36:24;13.73;;;10.48;;
77518;SDS011;66629;47.346;19.038;2023-05-24T05:38:49;13.15;;;11.07;;
77518;SDS011;66629;47.346;19.038;2023-05-24T05:41:15;15.10;;;10.65;;
77518;SDS011;66629;47.346;19.038;2023-05-24T05:43:41;15.80;;;10.73;;
77518;SDS011;66629;47.346;19.038;2023-05-24T05:46:07;14.23;;;11.52;;
77518;SDS011;66629;47.346;19.038;2023-05-24T05:48:32;16.70;;;11.90;;
77518;SDS011;66629;47.346;19.038;2023-05-24T05:50:57;13.02;;;10.73;;
77518;SDS011;66629;47.346;19.038;2023-05-24T05:53:23;12.95;;;11.00;;
77518;SDS011;66629;47.346;19.038;2023-05-24T05:55:49;12.73;;;9.98;;
77518;SDS011;66629;47.346;19.038;2023-05-24T05:58:14;11.32;;;9.38;;
77518;SDS011;66629;47.346;19.038;2023-05-24T06:00:40;11.55;;;9.38;;
77518;SDS011;66629;47.346;19.038;2023-05-24T06:03:05;12.35;;;8.90;;
77518;SDS011;66629;47.346;19.038;2023-05-24T06:05:31;10.63;;;8.95;;
77518;SDS011;66629;47.346;19.038;2023-05-24T06:07:56;11.65;;;8.40;;
77518;SDS011;66629;47.346;19.038;2023-05-24T06:10:21;10.68;;;8.13;;
77518;SDS011;66629;47.346;19.038;2023-05-24T06:12:47;9.40;;;8.23;;
77518;SDS011;66629;47.346;19.038;2023-05-24T06:15:12;9.45;;;7.80;;
77518;SDS011;66629;47.346;19.038;2023-05-24T06:17:38;8.70;;;7.30;;
77518;SDS011;66629;47.346;19.038;2023-05-24T06:20:03;9.38;;;7.47;;
77518;SDS011;66629;47.346;19.038;2023-05-24T06:22:39;9.77;;;7.97;;
77518;SDS011;66629;47.346;19.038;2023-05-24T06:25:06;8.77;;;7.28;;
77518;SDS011;66629;47.346;19.038;2023-05-24T06:27:32;8.10;;;6.38;;
77518;SDS011;66629;47.346;19.038;2023-05-24T06:29:58;7.63;;;6.43;;
77518;SDS011;66629;47.346;19.038;2023-05-24T06:32:23;8.95;;;6.55;;
77518;SDS011;66629;47.346;19.038;2023-05-24T06:34:48;8.35;;;6.10;;
77518;SDS011;66629;47.346;19.038;2023-05-24T06:37:14;12.98;;;7.03;;
77518;SDS011;66629;47.346;19.038;2023-05-24T06:39:39;11.65;;;6.95;;
77518;SDS011;66629;47.346;19.038;2023-05-24T06:42:05;10.27;;;6.53;;
77518;SDS011;66629;47.346;19.038;2023-05-24T06:44:31;7.55;;;6.75;;
77518;SDS011;66629;47.346;19.038;2023-05-24T06:46:58;9.73;;;7.63;;
77518;SDS011;66629;47.346;19.038;2023-05-24T06:49:25;9.27;;;6.50;;
77518;SDS011;66629;47.346;19.038;2023-05-24T06:51:50;7.85;;;6.13;;
77518;SDS011;66629;47.346;19.038;2023-05-24T06:54:16;6.50;;;5.82;;
77518;SDS011;66629;47.346;19.038;2023-05-24T06:56:42;7.63;;;6.40;;
77518;SDS011;66629;47.346;19.038;2023-05-24T06:59:08;7.78;;;6.32;;
77518;SDS011;66629;47.346;19.038;2023-05-24T07:01:33;7.15;;;5.93;;
77518;SDS011;66629;47.346;19.038;2023-05-24T07:03:59;8.07;;;6.10;;
77518;SDS011;66629;47.346;19.038;2023-05-24T07:06:25;6.75;;;5.85;;
77518;SDS011;66629;47.346;19.038;2023-05-24T07:08:51;8.68;;;6.63;;
77518;SDS011;66629;47.346;19.038;2023-05-24T07:11:16;9.45;;;6.63;;
77518;SDS011;66629;47.346;19.038;2023-05-24T07:13:41;7.65;;;6.53;;
77518;SDS011;66629;47.346;19.038;2023-05-24T07:16:07;8.23;;;6.10;;
77518;SDS011;66629;47.346;19.038;2023-05-24T07:18:32;9.10;;;6.10;;
77518;SDS011;66629;47.346;19.038;2023-05-24T07:20:58;7.40;;;6.60;;
77518;SDS011;66629;47.346;19.038;2023-05-24T07:23:24;9.35;;;6.20;;
77518;SDS011;66629;47.346;19.038;2023-05-24T07:25:50;8.50;;;6.20;;
77518;SDS011;66629;47.346;19.038;2023-05-24T07:28:16;11.35;;;6.85;;
77518;SDS011;66629;47.346;19.038;2023-05-24T07:30:44;9.77;;;6.68;;
77518;SDS011;66629;47.346;19.038;2023-05-24T07:33:09;8.80;;;6.32;;
77518;SDS011;66629;47.346;19.038;2023-05-24T07:35:35;7.45;;;6.40;;
77518;SDS011;66629;47.346;19.038;2023-05-24T07:38:00;8.30;;;6.63;;
77518;SDS011;66629;47.346;19.038;2023-05-24T07:40:26;11.48;;;6.05;;
77518;SDS011;66629;47.346;19.038;2023-05-24T07:42:51;10.38;;;6.88;;
77518;SDS011;66629;47.346;19.038;2023-05-24T07:45:17;11.30;;;7.20;;
77518;SDS011;66629;47.346;19.038;2023-05-24T07:47:42;8.75;;;7.55;;
77518;SDS011;66629;47.346;19.038;2023-05-24T07:50:08;8.48;;;6.70;;
77518;SDS011;66629;47.346;19.038;2023-05-24T07:52:34;8.60;;;7.20;;
77518;SDS011;66629;47.346;19.038;2023-05-24T07:54:59;10.43;;;7.90;;
77518;SDS011;66629;47.346;19.038;2023-05-24T07:57:25;9.25;;;8.02;;
77518;SDS011;66629;47.346;19.038;2023-05-24T07:59:51;8.70;;;7.55;;
77518;SDS011;66629;47.346;19.038;2023-05-24T08:02:17;8.60;;;6.55;;
77518;SDS011;66629;47.346;19.038;2023-05-24T08:04:42;8.90;;;7.57;;
77518;SDS011;66629;47.346;19.038;2023-05-24T08:07:08;11.02;;;7.03;;
77518;SDS011;66629;47.346;19.038;2023-05-24T08:09:33;8.02;;;6.63;;
77518;SDS011;66629;47.346;19.038;2023-05-24T08:12:03;9.85;;;7.70;;
77518;SDS011;66629;47.346;19.038;2023-05-24T08:14:30;9.10;;;7.97;;
77518;SDS011;66629;47.346;19.038;2023-05-24T08:16:56;7.13;;;6.30;;
77518;SDS011;66629;47.346;19.038;2023-05-24T08:19:22;8.30;;;7.50;;
77518;SDS011;66629;47.346;19.038;2023-05-24T08:21:47;8.63;;;6.35;;
77518;SDS011;66629;47.346;19.038;2023-05-24T08:24:13;10.73;;;7.28;;
77518;SDS011;66629;47.346;19.038;2023-05-24T08:26:38;7.55;;;6.60;;
77518;SDS011;66629;47.346;19.038;2023-05-24T08:29:04;8.57;;;7.15;;
77518;SDS011;66629;47.346;19.038;2023-05-24T08:31:30;9.35;;;7.03;;
77518;SDS011;66629;47.346;19.038;2023-05-24T08:33:57;8.25;;;6.40;;
77518;SDS011;66629;47.346;19.038;2023-05-24T08:36:23;7.32;;;6.25;;
77518;SDS011;66629;47.346;19.038;2023-05-24T08:38:48;10.80;;;7.30;;
77518;SDS011;66629;47.346;19.038;2023-05-24T08:41:13;9.07;;;6.53;;
77518;SDS011;66629;47.346;19.038;2023-05-24T08:43:40;9.20;;;7.35;;
77518;SDS011;66629;47.346;19.038;2023-05-24T08:46:07;9.02;;;7.25;;
77518;SDS011;66629;47.346;19.038;2023-05-24T08:48:33;7.72;;;6.85;;
77518;SDS011;66629;47.346;19.038;2023-05-24T08:51:08;8.38;;;6.32;;
77518;SDS011;66629;47.346;19.038;2023-05-24T08:53:34;8.40;;;6.10;;
77518;SDS011;66629;47.346;19.038;2023-05-24T08:56:01;9.00;;;5.93;;
77518;SDS011;66629;47.346;19.038;2023-05-24T08:58:27;7.90;;;6.45;;
77518;SDS011;66629;47.346;19.038;2023-05-24T09:00:54;6.68;;;5.85;;
77518;SDS011;66629;47.346;19.038;2023-05-24T09:03:20;7.68;;;5.75;;
77518;SDS011;66629;47.346;19.038;2023-05-24T09:05:47;7.80;;;5.63;;
77518;SDS011;66629;47.346;19.038;2023-05-24T09:08:12;6.55;;;5.30;;
77518;SDS011;66629;47.346;19.038;2023-05-24T09:10:41;6.25;;;5.35;;
77518;SDS011;66629;47.346;19.038;2023-05-24T09:13:08;7.78;;;5.30;;
77518;SDS011;66629;47.346;19.038;2023-05-24T09:15:34;6.70;;;4.93;;
77518;SDS011;66629;47.346;19.038;2023-05-24T09:18:00;8.45;;;5.03;;
77518;SDS011;66629;47.346;19.038;2023-05-24T09:20:26;8.60;;;5.32;;
77518;SDS011;66629;47.346;19.038;2023-05-24T09:22:51;5.78;;;4.57;;
77518;SDS011;66629;47.346;19.038;2023-05-24T09:25:18;5.78;;;4.60;;
77518;SDS011;66629;47.346;19.038;2023-05-24T09:27:50;7.25;;;5.00;;
77518;SDS011;66629;47.346;19.038;2023-05-24T09:30:16;8.32;;;4.65;;
77518;SDS011;66629;47.346;19.038;2023-05-24T09:32:52;6.95;;;4.88;;
77518;SDS011;66629;47.346;19.038;2023-05-24T09:35:29;5.72;;;4.78;;
77518;SDS011;66629;47.346;19.038;2023-05-24T09:37:56;5.50;;;4.65;;
77518;SDS011;66629;47.346;19.038;2023-05-24T09:40:23;6.97;;;4.80;;
77518;SDS011;66629;47.346;19.038;2023-05-24T09:43:01;6.30;;;4.68;;
77518;SDS011;66629;47.346;19.038;2023-05-24T09:45:42;5.80;;;4.50;;
77518;SDS011;66629;47.346;19.038;2023-05-24T09:48:11;6.43;;;5.25;;
77518;SDS011;66629;47.346;19.038;2023-05-24T09:50:37;6.90;;;4.72;;
77518;SDS011;66629;47.346;19.038;2023-05-24T09:53:03;5.57;;;4.80;;
77518;SDS011;66629;47.346;19.038;2023-05-24T09:55:28;7.07;;;4.43;;
77518;SDS011;66629;47.346;19.038;2023-05-24T09:58:01;7.32;;;4.93;;
77518;SDS011;66629;47.346;19.038;2023-05-24T10:00:28;5.07;;;4.40;;
77518;SDS011;66629;47.346;19.038;2023-05-24T10:03:05;10.35;;;4.72;;
77518;SDS011;66629;47.346;19.038;2023-05-24T10:05:33;5.93;;;4.43;;
77518;SDS011;66629;47.346;19.038;2023-05-24T10:07:59;8.75;;;4.05;;
77518;SDS011;66629;47.346;19.038;2023-05-24T10:10:29;5.85;;;4.10;;
77518;SDS011;66629;47.346;19.038;2023-05-24T10:12:56;4.93;;;4.10;;
77518;SDS011;66629;47.346;19.038;2023-05-24T10:15:23;5.10;;;4.07;;
77518;SDS011;66629;47.346;19.038;2023-05-24T10:17:58;5.80;;;4.20;;
77518;SDS011;66629;47.346;19.038;2023-05-24T10:20:25;5.93;;;4.15;;
77518;SDS011;66629;47.346;19.038;2023-05-24T10:22:54;6.15;;;4.45;;
77518;SDS011;66629;47.346;19.038;2023-05-24T10:25:25;5.05;;;4.22;;
77518;SDS011;66629;47.346;19.038;2023-05-24T10:27:55;7.45;;;4.10;;
77518;SDS011;66629;47.346;19.038;2023-05-24T10:32:56;6.20;;;4.30;;
77518;SDS011;66629;47.346;19.038;2023-05-24T10:35:23;4.93;;;4.30;;
77518;SDS011;66629;47.346;19.038;2023-05-24T10:37:51;6.20;;;3.90;;
77518;SDS011;66629;47.346;19.038;2023-05-24T10:40:18;4.72;;;3.92;;
77518;SDS011;66629;47.346;19.038;2023-05-24T10:42:45;5.38;;;3.85;;
77518;SDS011;66629;47.346;19.038;2023-05-24T10:45:28;6.10;;;4.53;;
77518;SDS011;66629;47.346;19.038;2023-05-24T10:48:00;5.80;;;4.28;;
77518;SDS011;66629;47.346;19.038;2023-05-24T10:50:26;5.13;;;4.10;;
77518;SDS011;66629;47.346;19.038;2023-05-24T10:52:59;6.10;;;3.80;;
77518;SDS011;66629;47.346;19.038;2023-05-24T10:58:21;6.45;;;3.95;;
77518;SDS011;66629;47.346;19.038;2023-05-24T11:00:50;5.38;;;3.80;;
77518;SDS011;66629;47.346;19.038;2023-05-24T11:03:17;5.97;;;3.95;;
77518;SDS011;66629;47.346;19.038;2023-05-24T11:11:14;5.97;;;4.40;;
77518;SDS011;66629;47.346;19.038;2023-05-24T11:13:45;5.20;;;3.97;;
77518;SDS011;66629;47.346;19.038;2023-05-24T11:16:31;5.75;;;4.20;;
77518;SDS011;66629;47.346;19.038;2023-05-24T11:19:03;5.22;;;4.25;;
77518;SDS011;66629;47.346;19.038;2023-05-24T11:21:36;6.68;;;3.92;;
77518;SDS011;66629;47.346;19.038;2023-05-24T11:24:03;4.88;;;3.72;;
77518;SDS011;66629;47.346;19.038;2023-05-24T11:26:29;5.55;;;3.90;;
77518;SDS011;66629;47.346;19.038;2023-05-24T11:28:55;4.97;;;3.58;;
77518;SDS011;66629;47.346;19.038;2023-05-24T11:31:25;5.55;;;4.10;;
77518;SDS011;66629;47.346;19.038;2023-05-24T11:33:51;5.13;;;3.63;;
77518;SDS011;66629;47.346;19.038;2023-05-24T11:36:17;6.20;;;3.65;;
77518;SDS011;66629;47.346;19.038;2023-05-24T11:38:44;7.00;;;3.78;;
77518;SDS011;66629;47.346;19.038;2023-05-24T11:41:11;4.72;;;3.80;;
77518;SDS011;66629;47.346;19.038;2023-05-24T11:43:37;4.65;;;3.60;;
77518;SDS011;66629;47.346;19.038;2023-05-24T11:46:03;5.72;;;3.85;;
77518;SDS011;66629;47.346;19.038;2023-05-24T11:48:28;4.53;;;3.50;;
77518;SDS011;66629;47.346;19.038;2023-05-24T11:50:54;5.85;;;3.53;;
77518;SDS011;66629;47.346;19.038;2023-05-24T11:53:21;6.10;;;3.72;;
77518;SDS011;66629;47.346;19.038;2023-05-24T11:55:47;5.00;;;3.80;;
77518;SDS011;66629;47.346;19.038;2023-05-24T12:00:43;4.35;;;3.78;;
77518;SDS011;66629;47.346;19.038;2023-05-24T12:03:12;4.60;;;3.58;;
77518;SDS011;66629;47.346;19.038;2023-05-24T12:05:37;4.45;;;3.30;;
77518;SDS011;66629;47.346;19.038;2023-05-24T12:08:04;5.95;;;3.88;;
77518;SDS011;66629;47.346;19.038;2023-05-24T12:10:32;5.35;;;3.63;;
77518;SDS011;66629;47.346;19.038;2023-05-24T12:12:59;5.75;;;3.65;;
77518;SDS011;66629;47.346;19.038;2023-05-24T12:15:26;6.13;;;3.42;;
77518;SDS011;66629;47.346;19.038;2023-05-24T12:17:52;6.90;;;3.50;;
77518;SDS011;66629;47.346;19.038;2023-05-24T12:20:17;3.80;;;2.97;;
77518;SDS011;66629;47.346;19.038;2023-05-24T12:22:50;4.70;;;3.25;;
77518;SDS011;66629;47.346;19.038;2023-05-24T12:25:19;5.40;;;3.15;;
77518;SDS011;66629;47.346;19.038;2023-05-24T12:27:52;5.25;;;3.45;;
77518;SDS011;66629;47.346;19.038;2023-05-24T12:30:23;6.97;;;3.30;;
77518;SDS011;66629;47.346;19.038;2023-05-24T12:32:52;5.03;;;3.27;;
77518;SDS011;66629;47.346;19.038;2023-05-24T12:35:19;4.93;;;3.50;;
77518;SDS011;66629;47.346;19.038;2023-05-24T12:37:45;5.05;;;3.10;;
77518;SDS011;66629;47.346;19.038;2023-05-24T12:40:18;4.28;;;3.50;;
77518;SDS011;66629;47.346;19.038;2023-05-24T12:42:52;4.43;;;3.38;;
77518;SDS011;66629;47.346;19.038;2023-05-24T12:45:20;5.93;;;3.30;;
77518;SDS011;66629;47.346;19.038;2023-05-24T12:47:56;3.95;;;3.10;;
77518;SDS011;66629;47.346;19.038;2023-05-24T12:50:24;3.90;;;3.20;;
77518;SDS011;66629;47.346;19.038;2023-05-24T12:52:50;6.22;;;3.20;;
77518;SDS011;66629;47.346;19.038;2023-05-24T12:55:22;4.78;;;2.90;;
77518;SDS011;66629;47.346;19.038;2023-05-24T12:57:50;4.57;;;3.40;;
77518;SDS011;66629;47.346;19.038;2023-05-24T13:00:18;3.60;;;2.90;;
77518;SDS011;66629;47.346;19.038;2023-05-24T13:02:45;3.22;;;2.58;;
77518;SDS011;66629;47.346;19.038;2023-05-24T13:05:10;4.53;;;2.80;;
77518;SDS011;66629;47.346;19.038;2023-05-24T13:07:36;3.15;;;2.33;;
77518;SDS011;66629;47.346;19.038;2023-05-24T13:10:02;4.97;;;3.00;;
77518;SDS011;66629;47.346;19.038;2023-05-24T13:12:28;4.15;;;2.60;;
77518;SDS011;66629;47.346;19.038;2023-05-24T13:14:54;5.28;;;2.70;;
77518;SDS011;66629;47.346;19.038;2023-05-24T13:17:19;3.65;;;2.60;;
77518;SDS011;66629;47.346;19.038;2023-05-24T13:19:45;4.32;;;2.90;;
77518;SDS011;66629;47.346;19.038;2023-05-24T13:22:11;3.75;;;2.67;;
77518;SDS011;66629;47.346;19.038;2023-05-24T13:24:37;3.55;;;3.08;;
77518;SDS011;66629;47.346;19.038;2023-05-24T13:27:03;4.40;;;2.63;;
77518;SDS011;66629;47.346;19.038;2023-05-24T13:29:28;3.92;;;2.70;;
77518;SDS011;66629;47.346;19.038;2023-05-24T13:31:54;5.35;;;2.60;;
77518;SDS011;66629;47.346;19.038;2023-05-24T13:34:20;5.22;;;2.88;;
77518;SDS011;66629;47.346;19.038;2023-05-24T13:36:47;5.88;;;2.50;;
77518;SDS011;66629;47.346;19.038;2023-05-24T13:39:12;3.50;;;2.83;;
77518;SDS011;66629;47.346;19.038;2023-05-24T13:41:38;2.75;;;2.50;;
77518;SDS011;66629;47.346;19.038;2023-05-24T13:44:04;3.17;;;2.60;;
77518;SDS011;66629;47.346;19.038;2023-05-24T13:46:31;3.45;;;2.60;;
77518;SDS011;66629;47.346;19.038;2023-05-24T13:48:56;3.72;;;2.53;;
77518;SDS011;66629;47.346;19.038;2023-05-24T13:51:22;3.33;;;2.70;;
77518;SDS011;66629;47.346;19.038;2023-05-24T13:53:48;3.22;;;2.53;;
77518;SDS011;66629;47.346;19.038;2023-05-24T13:56:14;4.60;;;2.75;;
77518;SDS011;66629;47.346;19.038;2023-05-24T13:58:41;3.92;;;2.58;;
77518;SDS011;66629;47.346;19.038;2023-05-24T14:01:06;2.65;;;2.30;;
77518;SDS011;66629;47.346;19.038;2023-05-24T14:03:33;4.65;;;2.65;;
77518;SDS011;66629;47.346;19.038;2023-05-24T14:05:58;3.50;;;2.40;;
77518;SDS011;66629;47.346;19.038;2023-05-24T14:08:24;4.75;;;2.65;;
77518;SDS011;66629;47.346;19.038;2023-05-24T14:10:49;3.78;;;2.60;;
77518;SDS011;66629;47.346;19.038;2023-05-24T14:13:15;4.47;;;2.60;;
77518;SDS011;66629;47.346;19.038;2023-05-24T14:15:41;7.75;;;2.67;;
77518;SDS011;66629;47.346;19.038;2023-05-24T14:18:06;5.25;;;2.67;;
77518;SDS011;66629;47.346;19.038;2023-05-24T14:20:33;3.33;;;2.75;;
77518;SDS011;66629;47.346;19.038;2023-05-24T14:23:05;3.47;;;2.55;;
77518;SDS011;66629;47.346;19.038;2023-05-24T14:25:31;3.78;;;2.33;;
77518;SDS011;66629;47.346;19.038;2023-05-24T14:27:57;4.05;;;2.50;;
77518;SDS011;66629;47.346;19.038;2023-05-24T14:30:23;3.80;;;2.63;;
77518;SDS011;66629;47.346;19.038;2023-05-24T14:32:49;5.53;;;2.80;;
77518;SDS011;66629;47.346;19.038;2023-05-24T14:35:14;3.58;;;2.63;;
77518;SDS011;66629;47.346;19.038;2023-05-24T14:37:40;3.53;;;2.50;;
77518;SDS011;66629;47.346;19.038;2023-05-24T14:40:05;3.97;;;2.65;;
77518;SDS011;66629;47.346;19.038;2023-05-24T14:42:31;2.65;;;2.30;;
77518;SDS011;66629;47.346;19.038;2023-05-24T14:44:57;5.50;;;2.50;;
77518;SDS011;66629;47.346;19.038;2023-05-24T14:47:22;3.85;;;2.30;;
77518;SDS011;66629;47.346;19.038;2023-05-24T14:49:48;3.00;;;2.35;;
77518;SDS011;66629;47.346;19.038;2023-05-24T14:52:13;3.75;;;2.28;;
77518;SDS011;66629;47.346;19.038;2023-05-24T14:54:39;4.18;;;2.20;;
77518;SDS011;66629;47.346;19.038;2023-05-24T14:57:04;3.10;;;2.63;;